Time;durP1;ratioP1;P1;durP2;ratioP2;P2;SDS_P1;SDS_P2;PMS_P1;PMS_P2;Temp;Humidity;BMP_temperature;BMP_pressure;BME280_temperature;BME280_humidity;BME280_pressure;Samples;Min_cycle;Max_cycle;Signal;HPM_P1;HPM_P2
2024/02/05 16:00:28;;;;;;;;;;;2.20;99.90;;;;;;5132838;27;19918;-90
2024/02/05 16:02:56;;;;;;;;;;;2.20;99.90;;;;;;5132364;28;19999;-91
2024/02/05 16:05:30;;;;;;;;;;;2.30;99.90;;;;;;5114670;28;19995;-91
2024/02/05 16:10:59;;;;;;;;;;;2.50;99.90;;;;;;5129152;28;19960;-92
2024/02/05 16:13:27;;;;;;;;;;;2.60;99.90;;;;;;5114059;28;19911;-94
2024/02/05 16:16:01;;;;;;;;;;;2.80;99.90;;;;;;5113852;28;19912;-92
2024/02/05 16:18:29;;;;;;;;;;;2.80;99.90;;;;;;5114743;28;19912;-91
2024/02/05 16:20:55;;;;;;;;;;;2.90;99.90;;;;;;5113722;28;20278;-91
2024/02/05 16:23:20;;;;;;;;;;;2.90;99.90;;;;;;5135284;27;19912;-90
2024/02/05 16:25:46;;;;;;;;;;;3.00;99.90;;;;;;5152837;27;19907;-92
2024/02/05 16:28:17;;;;;;;;;;;3.00;99.90;;;;;;5138857;27;19907;-92
2024/02/05 16:30:45;;;;;;;;;;;3.00;99.90;;;;;;5132304;28;19908;-92
2024/02/05 16:33:10;;;;;;;;;;;3.10;99.90;;;;;;5113596;28;20372;-91
2024/02/05 16:35:38;;;;;;;;;;;3.10;99.90;;;;;;5113324;28;19912;-90
2024/02/05 16:38:11;;;;;;;;;;;3.10;99.90;;;;;;5113697;28;19914;-92
2024/02/05 16:40:37;;;;;;;;;;;3.10;99.90;;;;;;5131817;28;19912;-92
2024/02/05 16:43:03;;;;;;;;;;;3.10;99.90;;;;;;5131545;28;19911;-93
2024/02/05 16:45:28;;;;;;;;;;;3.10;99.90;;;;;;5109400;28;19912;-93
2024/02/05 16:47:55;;;;;;;;;;;3.10;99.90;;;;;;5129808;27;19919;-92
2024/02/05 16:50:20;;;;;;;;;;;3.20;99.90;;;;;;5113566;28;20040;-92
2024/02/05 16:52:46;;;;;;;;;;;3.10;99.90;;;;;;5110701;28;20029;-92
2024/02/05 16:55:11;;;;;;;;;;;3.10;99.90;;;;;;5131176;28;19907;-92
2024/02/05 16:57:37;;;;;;;;;;;3.20;99.90;;;;;;5130631;28;20067;-92
2024/02/05 17:00:03;;;;;;;;;;;3.20;99.90;;;;;;5111080;28;19924;-91
2024/02/05 17:02:29;;;;;;;;;;;3.20;99.90;;;;;;5108863;28;19920;-92
2024/02/05 17:04:54;;;;;;;;;;;3.20;99.90;;;;;;5116430;27;19950;-93
2024/02/05 17:07:20;;;;;;;;;;;3.20;99.90;;;;;;5134723;27;19941;-92
2024/02/05 17:09:46;;;;;;;;;;;3.30;99.90;;;;;;5105733;28;19934;-93
2024/02/05 17:12:11;;;;;;;;;;;3.30;99.90;;;;;;5114112;27;19951;-92
2024/02/05 17:14:41;;;;;;;;;;;3.20;99.90;;;;;;5118104;27;19908;-93
2024/02/05 17:17:09;;;;;;;;;;;3.20;99.90;;;;;;5113808;28;20331;-92
2024/02/05 17:19:42;;;;;;;;;;;3.20;99.90;;;;;;5116379;28;20007;-91
2024/02/05 17:22:09;;;;;;;;;;;3.10;99.90;;;;;;5099139;28;19994;-92
2024/02/05 17:24:34;;;;;;;;;;;3.10;99.90;;;;;;5111172;28;19925;-93
2024/02/05 17:27:01;;;;;;;;;;;3.20;99.90;;;;;;5096319;28;19915;-92
2024/02/05 17:29:26;;;;;;;;;;;3.20;99.90;;;;;;5098532;27;20022;-90
2024/02/05 17:31:52;;;;;;;;;;;3.10;99.90;;;;;;5098109;28;19998;-91
2024/02/05 17:34:17;;;;;;;;;;;3.10;99.90;;;;;;5114921;27;20410;-90
2024/02/05 17:36:43;;;;;;;;;;;3.10;99.90;;;;;;5097818;28;19918;-91
2024/02/05 17:39:11;;;;;;;;;;;3.10;99.90;;;;;;5119925;27;19915;-92
2024/02/05 17:41:40;;;;;;;;;;;3.10;99.90;;;;;;5097822;28;19937;-93
2024/02/05 17:44:06;;;;;;;;;;;3.10;99.90;;;;;;5097174;28;20335;-92
2024/02/05 17:46:32;;;;;;;;;;;3.10;99.90;;;;;;5115193;27;19946;-94
2024/02/05 17:48:58;;;;;;;;;;;3.10;99.90;;;;;;5099969;28;19915;-94
2024/02/05 17:51:23;;;;;;;;;;;3.00;99.90;;;;;;5097550;28;20420;-93
2024/02/05 17:53:49;;;;;;;;;;;3.00;99.90;;;;;;5097697;28;19979;-92
2024/02/05 17:56:14;;;;;;;;;;;3.00;99.90;;;;;;5096055;28;20003;-94
2024/02/05 17:58:40;;;;;;;;;;;3.00;99.90;;;;;;5096205;28;19927;-92
2024/02/05 18:01:05;;;;;;;;;;;3.00;99.90;;;;;;5095427;28;19947;-91
2024/02/05 18:03:31;;;;;;;;;;;2.90;99.90;;;;;;5097152;28;20012;-91
2024/02/05 18:05:56;;;;;;;;;;;2.90;99.90;;;;;;5096863;28;19926;-94
2024/02/05 18:08:22;;;;;;;;;;;2.90;99.90;;;;;;5096774;28;20028;-94
2024/02/05 18:10:47;;;;;;;;;;;2.90;99.90;;;;;;5098657;28;19918;-91
2024/02/05 18:13:16;;;;;;;;;;;2.80;99.90;;;;;;5096741;28;19911;-93
2024/02/05 18:15:42;;;;;;;;;;;2.90;99.90;;;;;;5114075;28;20346;-92
2024/02/05 18:18:07;;;;;;;;;;;2.90;99.90;;;;;;5096744;28;19912;-94
2024/02/05 18:20:35;;;;;;;;;;;2.90;99.90;;;;;;5100252;28;19919;-93
2024/02/05 18:23:00;;;;;;;;;;;2.90;99.90;;;;;;5096224;28;19973;-93
2024/02/05 18:25:26;;;;;;;;;;;2.80;99.90;;;;;;5096579;28;20368;-93
2024/02/05 18:27:51;;;;;;;;;;;2.90;99.90;;;;;;5096508;28;20002;-92
2024/02/05 18:30:17;;;;;;;;;;;2.80;99.90;;;;;;5095792;28;20128;-92
2024/02/05 18:32:42;;;;;;;;;;;2.80;99.90;;;;;;5099232;28;20352;-94
2024/02/05 18:35:09;;;;;;;;;;;2.80;99.90;;;;;;5097958;28;19914;-93
2024/02/05 18:37:34;;;;;;;;;;;2.80;99.90;;;;;;5111894;28;19956;-92
2024/02/05 18:40:00;;;;;;;;;;;2.80;99.90;;;;;;5095141;28;19958;-91
2024/02/05 18:42:25;;;;;;;;;;;2.90;99.90;;;;;;5117357;27;20309;-91
2024/02/05 18:44:51;;;;;;;;;;;2.90;99.90;;;;;;5095559;28;19912;-94
2024/02/05 18:47:16;;;;;;;;;;;2.90;99.90;;;;;;5101484;28;20268;-95
2024/02/05 18:49:42;;;;;;;;;;;2.90;99.90;;;;;;5094573;28;19999;-95
2024/02/05 18:52:07;;;;;;;;;;;2.90;99.90;;;;;;5096787;27;19919;-94
2024/02/05 18:54:36;;;;;;;;;;;3.00;99.90;;;;;;5102998;28;19947;-94
2024/02/05 18:57:01;;;;;;;;;;;3.00;99.90;;;;;;5109116;28;20398;-93
2024/02/05 18:59:27;;;;;;;;;;;3.00;99.90;;;;;;5096793;28;19924;-92
2024/02/05 19:01:54;;;;;;;;;;;3.10;99.90;;;;;;5096533;28;19934;-94
2024/02/05 19:06:53;;;;;;;;;;;3.10;99.90;;;;;;5055105;28;20388;-94
2024/02/05 19:09:19;;;;;;;;;;;3.10;99.90;;;;;;5053122;28;19913;-91
2024/02/05 19:11:45;;;;;;;;;;;3.10;99.90;;;;;;5063235;28;19919;-94
2024/02/05 19:14:10;;;;;;;;;;;3.10;99.90;;;;;;5049033;28;19912;-93
2024/02/05 19:16:35;;;;;;;;;;;3.20;99.90;;;;;;5057630;28;20006;-91
2024/02/05 19:19:01;;;;;;;;;;;3.10;99.90;;;;;;5058036;28;19923;-95
2024/02/05 19:21:26;;;;;;;;;;;3.20;99.90;;;;;;5054817;28;19952;-94
2024/02/05 19:23:52;;;;;;;;;;;3.20;99.90;;;;;;5072247;28;19914;-95
2024/02/05 19:26:18;;;;;;;;;;;3.20;99.90;;;;;;5062251;28;19920;-94
2024/02/05 19:28:43;;;;;;;;;;;3.20;99.90;;;;;;5059920;28;19909;-93
2024/02/05 19:31:09;;;;;;;;;;;3.20;99.90;;;;;;5053878;28;20268;-92
2024/02/05 19:33:34;;;;;;;;;;;3.20;99.90;;;;;;5052723;28;19913;-92
2024/02/05 19:36:01;;;;;;;;;;;3.20;99.90;;;;;;5054229;28;20269;-93
2024/02/05 19:38:26;;;;;;;;;;;3.20;99.90;;;;;;5054369;28;19909;-93
2024/02/05 19:40:52;;;;;;;;;;;3.30;99.90;;;;;;5050520;28;20353;-91
2024/02/05 19:43:17;;;;;;;;;;;3.30;99.90;;;;;;5052834;28;19919;-92
2024/02/05 19:45:43;;;;;;;;;;;3.30;99.90;;;;;;5054729;28;19916;-92
2024/02/05 19:48:08;;;;;;;;;;;3.30;99.90;;;;;;5052372;28;20274;-92
2024/02/05 19:50:35;;;;;;;;;;;3.30;99.90;;;;;;5060707;28;19940;-93
2024/02/05 19:53:01;;;;;;;;;;;3.30;99.90;;;;;;5072919;28;19909;-92
2024/02/05 19:55:29;;;;;;;;;;;3.30;99.90;;;;;;5074197;28;20010;-93
2024/02/05 19:57:55;;;;;;;;;;;3.40;99.90;;;;;;5063746;28;19974;-92
2024/02/05 20:00:20;;;;;;;;;;;3.40;99.90;;;;;;5052748;28;20369;-92
2024/02/05 20:02:46;;;;;;;;;;;3.40;99.90;;;;;;5052740;28;19916;-92
2024/02/05 20:05:11;;;;;;;;;;;3.40;99.90;;;;;;5052262;28;19925;-93
2024/02/05 20:07:37;;;;;;;;;;;3.40;99.90;;;;;;5049896;28;19919;-92
2024/02/05 20:11:30;;;;;;;;;;;3.40;99.90;;;;;;5142803;27;20367;-92
2024/02/05 20:13:56;;;;;;;;;;;3.40;99.90;;;;;;5131339;27;19918;-92
2024/02/05 20:16:25;;;;;;;;;;;3.40;99.90;;;;;;5131400;28;20310;-91
2024/02/05 20:18:50;;;;;;;;;;;3.40;99.90;;;;;;5114094;28;19908;-93
2024/02/05 20:21:18;;;;;;;;;;;3.40;99.90;;;;;;5131957;28;20245;-92
2024/02/05 20:23:43;;;;;;;;;;;3.40;99.90;;;;;;5113710;28;19958;-91
2024/02/05 20:26:09;;;;;;;;;;;3.40;99.90;;;;;;5109927;28;19947;-92
2024/02/05 20:28:35;;;;;;;;;;;3.40;99.90;;;;;;5132582;28;20352;-91
2024/02/05 20:31:00;;;;;;;;;;;3.30;99.90;;;;;;5098706;28;20309;-92
2024/02/05 20:33:26;;;;;;;;;;;3.30;99.90;;;;;;5132065;28;19911;-92
2024/02/05 20:35:51;;;;;;;;;;;3.30;99.90;;;;;;5113945;28;19912;-91
2024/02/05 20:38:17;;;;;;;;;;;3.30;99.90;;;;;;5114335;28;19908;-92
2024/02/05 20:40:42;;;;;;;;;;;3.30;99.90;;;;;;5131230;28;19914;-91
2024/02/05 20:43:08;;;;;;;;;;;3.30;99.90;;;;;;5132576;28;20282;-92
2024/02/05 20:45:33;;;;;;;;;;;3.30;99.90;;;;;;5130861;28;20382;-94
2024/02/05 20:47:59;;;;;;;;;;;3.30;99.90;;;;;;5113595;28;19911;-91
2024/02/05 20:50:29;;;;;;;;;;;3.30;99.90;;;;;;5113476;28;19912;-91
2024/02/05 20:52:55;;;;;;;;;;;3.30;99.90;;;;;;5132175;28;19911;-92
2024/02/05 20:55:20;;;;;;;;;;;3.30;99.90;;;;;;5113521;28;19915;-90
2024/02/05 20:57:47;;;;;;;;;;;3.30;99.90;;;;;;5113492;28;19912;-91
2024/02/05 21:00:13;;;;;;;;;;;3.30;99.90;;;;;;5111877;28;19959;-92
2024/02/05 21:02:38;;;;;;;;;;;3.20;99.90;;;;;;5126186;28;19915;-93
2024/02/05 21:05:07;;;;;;;;;;;3.20;99.90;;;;;;5112656;28;19915;-92
2024/02/05 21:07:33;;;;;;;;;;;3.20;99.90;;;;;;5113380;28;19954;-91
2024/02/05 21:09:59;;;;;;;;;;;3.10;99.90;;;;;;5113673;28;19966;-90
2024/02/05 21:12:25;;;;;;;;;;;3.10;99.90;;;;;;5131398;28;19911;-91
2024/02/05 21:14:51;;;;;;;;;;;3.10;99.90;;;;;;5112835;28;19956;-91
2024/02/05 21:17:16;;;;;;;;;;;3.10;99.90;;;;;;5113022;28;20312;-92
2024/02/05 21:19:42;;;;;;;;;;;3.10;99.90;;;;;;5112760;28;20308;-92
2024/02/05 21:22:09;;;;;;;;;;;3.00;99.90;;;;;;5121036;28;19920;-92
2024/02/05 21:24:35;;;;;;;;;;;3.00;99.90;;;;;;5099630;28;19908;-91
2024/02/05 21:27:00;;;;;;;;;;;3.00;99.90;;;;;;5099560;28;19912;-91
2024/02/05 21:29:26;;;;;;;;;;;3.00;99.90;;;;;;5117215;28;19915;-92
2024/02/05 21:31:51;;;;;;;;;;;3.00;99.90;;;;;;5116910;28;19912;-91
2024/02/05 21:34:17;;;;;;;;;;;3.00;99.90;;;;;;5100244;28;19908;-93
